createdAt,value
2023-03-12T00:00:46.133Z,58.33
2023-03-12T00:01:46.140Z,57.36
2023-03-12T00:02:46.238Z,57.69
2023-03-12T00:03:46.176Z,57.52
2023-03-12T00:04:46.097Z,56.88
2023-03-12T00:05:46.097Z,56.88
2023-03-12T00:06:46.086Z,56.07
2023-03-12T00:07:46.113Z,37.22
2023-03-12T00:08:46.074Z,37.71
2023-03-12T00:09:46.058Z,40.28
2023-03-12T00:10:46.104Z,37.71
2023-03-12T00:11:46.056Z,40.61
2023-03-12T00:12:46.070Z,41.89
2023-03-12T00:13:46.042Z,39.16
2023-03-12T00:14:46.028Z,41.57
2023-03-12T00:15:46.066Z,38.99
2023-03-12T00:16:46.024Z,41.89
2023-03-12T00:17:46.037Z,37.87
2023-03-12T00:18:46.000Z,40.28
2023-03-12T00:19:46.000Z,39.32
2023-03-12T00:20:45.993Z,40.12
2023-03-12T00:21:45.971Z,40.44
2023-03-12T00:22:46.016Z,40.77
2023-03-12T00:23:45.973Z,40.61
2023-03-12T00:24:45.980Z,41.89
2023-03-12T00:25:46.943Z,39.96
2023-03-12T00:26:46.976Z,40.28
2023-03-12T00:27:46.011Z,39.80
2023-03-12T00:28:45.927Z,39.48
2023-03-12T00:29:45.924Z,40.44
2023-03-12T00:30:45.913Z,39.48
2023-03-12T00:31:45.987Z,40.61
2023-03-12T00:32:45.962Z,40.77
2023-03-12T00:33:45.950Z,40.93
2023-03-12T00:34:45.894Z,41.73
2023-03-12T00:35:45.911Z,40.12
2023-03-12T00:36:45.871Z,41.09
2023-03-12T00:37:45.864Z,56.56
2023-03-12T00:38:45.872Z,56.56
2023-03-12T00:39:45.842Z,56.72
2023-03-12T00:40:45.866Z,58.17
2023-03-12T00:41:45.834Z,58.17
2023-03-12T00:42:45.816Z,57.52
2023-03-12T00:43:45.845Z,57.85
2023-03-12T00:44:45.809Z,57.85
2023-03-12T00:45:45.806Z,57.85
2023-03-12T00:46:45.838Z,57.69
2023-03-12T00:47:45.784Z,57.85
2023-03-12T00:48:45.812Z,57.85
2023-03-12T00:49:45.759Z,58.81
2023-03-12T00:50:46.760Z,58.49
2023-03-12T00:51:45.754Z,58.17
2023-03-12T00:52:45.743Z,58.81
2023-03-12T00:53:45.771Z,58.01
2023-03-12T00:54:45.736Z,57.04
2023-03-12T00:55:45.724Z,56.24
2023-03-12T00:56:45.721Z,57.04
2023-03-12T00:57:45.710Z,56.88
2023-03-12T00:58:45.726Z,56.72
2023-03-12T00:59:45.713Z,56.88
2023-03-12T01:00:45.729Z,56.72
2023-03-12T01:01:45.678Z,56.56
2023-03-12T01:02:45.681Z,56.40
2023-03-12T01:03:45.729Z,55.75
2023-03-12T01:04:45.658Z,56.88
2023-03-12T01:05:45.652Z,56.72
2023-03-12T01:06:45.648Z,56.40
2023-03-12T01:07:45.640Z,56.72
2023-03-12T01:08:45.676Z,56.72
2023-03-12T01:09:45.638Z,56.56
2023-03-12T01:10:45.615Z,56.40
2023-03-12T01:11:45.610Z,56.07
2023-03-12T01:12:45.610Z,56.72
2023-03-12T01:13:45.629Z,56.88
2023-03-12T01:14:45.597Z,57.52
2023-03-12T01:15:45.595Z,57.04
2023-03-12T01:16:45.694Z,57.04
2023-03-12T01:17:45.578Z,56.88
2023-03-12T01:18:45.590Z,57.20
2023-03-12T01:19:45.550Z,56.88
2023-03-12T01:20:45.605Z,57.04
2023-03-12T01:21:45.544Z,56.88
2023-03-12T01:22:46.155Z,57.20
2023-03-12T01:23:45.554Z,57.04
2023-03-12T01:24:45.553Z,56.24
2023-03-12T01:25:45.527Z,57.20
2023-03-12T01:26:45.540Z,57.52
2023-03-12T01:27:45.490Z,57.36
2023-03-12T01:28:46.524Z,57.20
2023-03-12T01:29:45.487Z,56.88
2023-03-12T01:30:45.477Z,57.52
2023-03-12T01:31:45.502Z,56.88
2023-03-12T01:32:45.496Z,56.88
2023-03-12T01:33:45.489Z,56.88
2023-03-12T01:34:45.459Z,56.56
2023-03-12T01:35:45.571Z,56.72
2023-03-12T01:36:45.427Z,56.88
2023-03-12T01:37:45.433Z,59.46
2023-03-12T01:38:45.445Z,59.46
2023-03-12T01:39:45.416Z,59.62
2023-03-12T01:40:45.417Z,58.97
2023-03-12T01:41:45.394Z,59.46
2023-03-12T01:42:45.387Z,59.46
2023-03-12T01:43:45.426Z,59.30
2023-03-12T01:44:45.369Z,58.65
2023-03-12T01:45:45.421Z,59.78
2023-03-12T01:46:45.356Z,59.46
2023-03-12T01:47:45.347Z,59.46
2023-03-12T01:48:45.369Z,58.81
2023-03-12T01:49:45.366Z,59.30
2023-03-12T01:50:45.322Z,59.94
2023-03-12T01:51:45.321Z,59.30
2023-03-12T01:52:45.313Z,59.46
2023-03-12T01:53:45.326Z,59.78
2023-03-12T01:54:45.299Z,59.46
2023-03-12T01:55:45.290Z,59.62
2023-03-12T01:56:45.295Z,59.46
2023-03-12T01:57:45.271Z,59.62
2023-03-12T01:58:45.281Z,59.46
2023-03-12T01:59:45.258Z,59.62
2023-03-12T02:00:45.305Z,59.46
2023-03-12T02:01:45.257Z,59.46
2023-03-12T02:02:45.231Z,59.62
2023-03-12T02:03:45.274Z,59.62
2023-03-12T02:04:45.227Z,59.30
2023-03-12T02:05:45.236Z,59.30
2023-03-12T02:06:45.199Z,59.78
2023-03-12T02:07:45.198Z,60.10
2023-03-12T02:08:45.207Z,58.81
2023-03-12T02:09:45.175Z,59.14
2023-03-12T02:10:45.171Z,59.62
2023-03-12T02:11:45.171Z,59.14
2023-03-12T02:12:45.149Z,59.14
2023-03-12T02:13:45.175Z,58.97
2023-03-12T02:14:45.144Z,59.30
2023-03-12T02:15:45.133Z,59.46
2023-03-12T02:16:45.156Z,59.14
2023-03-12T02:17:45.127Z,58.97
2023-03-12T02:18:45.134Z,59.46
2023-03-12T02:19:45.113Z,58.81
2023-03-12T02:20:45.094Z,58.65
2023-03-12T02:21:45.089Z,59.30
2023-03-12T02:22:45.167Z,59.14
2023-03-12T02:23:46.097Z,59.14
2023-03-12T02:24:45.062Z,59.14
2023-03-12T02:25:45.055Z,58.49
2023-03-12T02:26:45.051Z,58.49
2023-03-12T02:27:45.045Z,58.97
2023-03-12T02:28:45.078Z,58.81
2023-03-12T02:29:45.030Z,58.81
2023-03-12T02:30:45.018Z,58.49
2023-03-12T02:31:45.044Z,58.81
2023-03-12T02:32:45.072Z,58.17
2023-03-12T02:33:45.040Z,58.81
2023-03-12T02:34:44.985Z,58.97
2023-03-12T02:35:45.011Z,58.81
2023-03-12T02:36:44.984Z,58.81
2023-03-12T02:37:44.970Z,58.81
2023-03-12T02:38:44.988Z,58.81
2023-03-12T02:39:45.043Z,58.65
2023-03-12T02:40:44.941Z,58.33
2023-03-12T02:41:44.937Z,58.49
2023-03-12T02:42:44.935Z,58.33
2023-03-12T02:43:44.957Z,58.01
2023-03-12T02:44:44.922Z,58.81
2023-03-12T02:45:44.974Z,60.26
2023-03-12T02:46:44.923Z,58.97
2023-03-12T02:47:44.899Z,59.46
2023-03-12T02:48:44.886Z,59.14
2023-03-12T02:49:45.913Z,58.97
2023-03-12T02:50:44.876Z,59.62
2023-03-12T02:51:44.885Z,59.14
2023-03-12T02:52:44.863Z,58.65
2023-03-12T02:53:44.869Z,59.62
2023-03-12T02:54:44.873Z,59.46
2023-03-12T02:55:44.835Z,59.14
2023-03-12T02:56:44.864Z,59.14
2023-03-12T02:57:44.824Z,59.46
2023-03-12T02:58:44.822Z,58.65
2023-03-12T02:59:44.839Z,59.14
2023-03-12T03:00:44.810Z,59.14
2023-03-12T03:01:44.844Z,58.97
2023-03-12T03:02:44.792Z,58.97
2023-03-12T03:03:44.804Z,59.14
2023-03-12T03:04:44.797Z,59.14
2023-03-12T03:05:44.773Z,58.97
2023-03-12T03:06:44.782Z,58.81
2023-03-12T03:07:44.769Z,58.65
2023-03-12T03:08:44.806Z,58.97
2023-03-12T03:09:44.775Z,59.14
2023-03-12T03:10:44.733Z,58.97
2023-03-12T03:11:44.756Z,58.97
2023-03-12T03:12:44.723Z,59.30
2023-03-12T03:13:44.751Z,58.97
2023-03-12T03:14:44.742Z,58.49
2023-03-12T03:15:44.791Z,59.14
2023-03-12T03:16:44.690Z,58.33
2023-03-12T03:17:44.712Z,37.71
2023-03-12T03:18:44.690Z,40.77
2023-03-12T03:19:44.693Z,39.48
2023-03-12T03:20:44.664Z,40.12
2023-03-12T03:21:44.679Z,39.80
2023-03-12T03:22:44.720Z,39.80
2023-03-12T03:23:44.655Z,39.80
2023-03-12T03:24:44.672Z,39.16
2023-03-12T03:25:44.630Z,39.32
2023-03-12T03:26:44.629Z,39.96
2023-03-12T03:27:44.611Z,40.12
2023-03-12T03:28:44.596Z,41.41
2023-03-12T03:29:44.622Z,44.47
2023-03-12T03:30:44.675Z,40.93
2023-03-12T03:31:44.583Z,41.25
2023-03-12T03:32:44.607Z,41.57
2023-03-12T03:33:44.598Z,40.77
2023-03-12T03:34:44.588Z,40.44
2023-03-12T03:35:44.569Z,41.09
2023-03-12T03:36:44.551Z,39.32
2023-03-12T03:37:44.553Z,39.48
2023-03-12T03:38:44.531Z,39.48
2023-03-12T03:39:44.558Z,40.44
2023-03-12T03:40:44.536Z,40.93
2023-03-12T03:41:44.554Z,40.28
2023-03-12T03:42:44.497Z,39.96
2023-03-12T03:43:44.490Z,40.28
2023-03-12T03:44:44.541Z,40.44
2023-03-12T03:45:44.482Z,40.77
2023-03-12T03:46:44.479Z,39.96
2023-03-12T03:47:44.472Z,39.80
2023-03-12T03:48:44.494Z,39.64
2023-03-12T03:49:44.474Z,39.96
2023-03-12T03:50:44.438Z,39.96
2023-03-12T03:51:44.440Z,39.96
2023-03-12T03:52:44.426Z,39.80
2023-03-12T03:53:44.477Z,39.80
2023-03-12T03:54:44.439Z,39.48
2023-03-12T03:55:44.409Z,40.44
2023-03-12T03:56:44.398Z,40.44
2023-03-12T03:57:44.395Z,40.44
2023-03-12T03:58:44.405Z,40.12
2023-03-12T03:59:44.404Z,39.32
2023-03-12T04:00:44.377Z,40.12
2023-03-12T04:01:44.363Z,39.80
2023-03-12T04:02:44.352Z,40.12
2023-03-12T04:03:44.369Z,39.96
2023-03-12T04:04:44.390Z,39.80
2023-03-12T04:05:44.367Z,39.96
2023-03-12T04:06:44.337Z,40.44
2023-03-12T04:07:44.318Z,39.96
2023-03-12T04:08:44.310Z,40.93
2023-03-12T04:09:44.329Z,40.28
2023-03-12T04:10:44.289Z,40.44
2023-03-12T04:11:44.295Z,40.44
2023-03-12T04:12:44.330Z,40.44
2023-03-12T04:13:44.293Z,39.16
2023-03-12T04:14:44.284Z,42.86
2023-03-12T04:15:44.276Z,40.77
2023-03-12T04:16:44.259Z,40.44
2023-03-12T04:17:44.281Z,40.61
2023-03-12T04:18:44.230Z,40.28
2023-03-12T04:19:44.314Z,40.12
2023-03-12T04:20:44.290Z,40.12
2023-03-12T04:21:44.221Z,42.38
2023-03-12T04:22:44.221Z,40.44
2023-03-12T04:23:44.199Z,40.28
2023-03-12T04:24:44.221Z,39.80
2023-03-12T04:25:44.175Z,40.12
2023-03-12T04:26:44.167Z,40.12
2023-03-12T04:27:44.199Z,39.96
2023-03-12T04:28:44.163Z,39.96
2023-03-12T04:29:44.172Z,40.44
2023-03-12T04:30:44.138Z,40.44
2023-03-12T04:31:44.314Z,39.80
2023-03-12T04:32:44.149Z,40.28
2023-03-12T04:33:44.129Z,40.61
2023-03-12T04:34:44.138Z,40.44
2023-03-12T04:35:44.103Z,40.61
2023-03-12T04:36:44.093Z,40.12
2023-03-12T04:37:44.087Z,40.28
2023-03-12T04:38:44.081Z,39.80
2023-03-12T04:39:44.096Z,39.16
2023-03-12T04:40:44.070Z,40.12
2023-03-12T04:41:44.055Z,40.12
2023-03-12T04:42:44.054Z,39.80
2023-03-12T04:43:44.055Z,40.28
2023-03-12T04:44:44.053Z,40.12
2023-03-12T04:45:44.056Z,40.44
2023-03-12T04:46:44.050Z,40.93
2023-03-12T04:47:44.022Z,39.48
2023-03-12T04:48:44.033Z,40.77
2023-03-12T04:49:44.003Z,40.61
2023-03-12T04:50:44.021Z,40.12
2023-03-12T04:51:43.986Z,40.28
2023-03-12T04:52:43.996Z,39.80
2023-03-12T04:53:44.039Z,40.28
2023-03-12T04:54:46.121Z,40.12
2023-03-12T04:55:43.982Z,40.93
2023-03-12T04:56:43.954Z,42.06
2023-03-12T04:57:43.948Z,40.44
2023-03-12T04:58:43.944Z,40.77
2023-03-12T04:59:43.942Z,40.12
2023-03-12T05:00:43.954Z,40.93
2023-03-12T05:01:43.923Z,41.25
2023-03-12T05:02:43.993Z,41.25
2023-03-12T05:03:43.900Z,41.09
2023-03-12T05:04:43.898Z,40.44
2023-03-12T05:05:43.902Z,41.41
2023-03-12T05:06:43.900Z,41.09
2023-03-12T05:07:43.866Z,40.93
2023-03-12T05:08:43.860Z,41.25
2023-03-12T05:09:43.857Z,41.09
2023-03-12T05:10:43.872Z,41.41
2023-03-12T05:11:43.848Z,40.28
2023-03-12T05:12:43.841Z,41.41
2023-03-12T05:13:43.823Z,40.28
2023-03-12T05:14:43.859Z,40.77
2023-03-12T05:15:43.851Z,40.61
2023-03-12T05:16:43.843Z,41.73
2023-03-12T05:17:43.796Z,39.96
2023-03-12T05:18:43.797Z,40.44
2023-03-12T05:19:43.783Z,40.93
2023-03-12T05:20:43.799Z,40.28
2023-03-12T05:21:43.762Z,39.96
2023-03-12T05:22:43.759Z,41.89
2023-03-12T05:23:43.821Z,40.61
2023-03-12T05:24:43.757Z,39.96
2023-03-12T05:25:43.777Z,40.93
2023-03-12T05:26:43.731Z,40.93
2023-03-12T05:27:43.742Z,40.61
2023-03-12T05:28:43.715Z,40.77
2023-03-12T05:29:43.715Z,40.93
2023-03-12T05:30:43.730Z,39.80
2023-03-12T05:31:43.798Z,40.61
2023-03-12T05:32:44.352Z,40.44
2023-03-12T05:33:43.694Z,40.44
2023-03-12T05:34:43.680Z,40.93
2023-03-12T05:35:43.736Z,40.44
2023-03-12T05:36:43.662Z,40.93
2023-03-12T05:37:43.680Z,40.93
2023-03-12T05:38:43.655Z,42.22
2023-03-12T05:39:43.645Z,44.63
2023-03-12T05:40:43.674Z,44.31
2023-03-12T05:41:43.634Z,41.57
2023-03-12T05:42:43.610Z,42.54
2023-03-12T05:43:43.613Z,42.06
2023-03-12T05:44:43.693Z,40.44
2023-03-12T05:45:43.751Z,41.41
2023-03-12T05:46:43.594Z,41.09
2023-03-12T05:47:43.583Z,41.09
2023-03-12T05:48:43.597Z,40.93
2023-03-12T05:49:43.571Z,41.09
2023-03-12T05:50:43.594Z,41.09
2023-03-12T05:51:43.551Z,41.89
2023-03-12T05:52:43.566Z,41.57
2023-03-12T05:53:43.574Z,42.86
2023-03-12T05:54:43.541Z,42.86
2023-03-12T05:55:43.588Z,40.44
2023-03-12T05:56:43.528Z,40.93
2023-03-12T05:57:43.505Z,41.09
2023-03-12T05:58:43.518Z,40.93
2023-03-12T05:59:43.531Z,40.93
2023-03-12T06:00:43.515Z,40.44
2023-03-12T06:01:43.494Z,40.93
2023-03-12T06:02:43.473Z,40.61
2023-03-12T06:03:43.567Z,40.61
2023-03-12T06:04:43.486Z,41.25
2023-03-12T06:05:43.478Z,48.50
2023-03-12T06:06:43.450Z,41.57
2023-03-12T06:07:43.441Z,41.73
2023-03-12T06:08:43.425Z,41.41
2023-03-12T06:09:43.427Z,40.77
2023-03-12T06:10:43.436Z,41.73
2023-03-12T06:11:43.413Z,40.77
2023-03-12T06:12:44.196Z,41.25
2023-03-12T06:13:43.391Z,41.57
2023-03-12T06:14:43.406Z,41.57
2023-03-12T06:15:43.401Z,41.89
2023-03-12T06:16:43.524Z,41.25
2023-03-12T06:17:43.364Z,41.41
2023-03-12T06:18:43.358Z,42.22
2023-03-12T06:19:43.362Z,54.95
2023-03-12T06:20:43.374Z,55.75
2023-03-12T06:21:43.335Z,56.56
2023-03-12T06:22:43.340Z,57.52
2023-03-12T06:23:43.323Z,58.49
2023-03-12T06:24:43.314Z,58.81
2023-03-12T06:25:43.325Z,58.81
2023-03-12T06:26:44.297Z,59.14
2023-03-12T06:27:43.344Z,58.01
2023-03-12T06:28:43.290Z,57.85
2023-03-12T06:29:43.290Z,58.49
2023-03-12T06:30:43.294Z,58.17
2023-03-12T06:31:43.280Z,57.52
2023-03-12T06:32:43.285Z,58.01
2023-03-12T06:33:43.245Z,58.65
2023-03-12T06:34:43.251Z,57.69
2023-03-12T06:35:43.289Z,57.20
2023-03-12T06:36:43.225Z,58.01
2023-03-12T06:37:43.287Z,57.85
2023-03-12T06:38:43.217Z,57.69
2023-03-12T06:39:43.208Z,57.85
2023-03-12T06:40:43.217Z,57.04
2023-03-12T06:41:43.196Z,58.33
2023-03-12T06:42:43.205Z,57.85
2023-03-12T06:43:43.193Z,58.17
2023-03-12T06:44:43.173Z,56.88
2023-03-12T06:45:43.187Z,57.36
2023-03-12T06:46:43.157Z,57.69
2023-03-12T06:47:43.158Z,58.01
2023-03-12T06:48:43.138Z,58.01
2023-03-12T06:49:43.149Z,57.04
2023-03-12T06:50:43.168Z,58.17
2023-03-12T06:51:43.130Z,58.17
2023-03-12T06:52:43.107Z,57.85
2023-03-12T06:53:43.111Z,57.04
2023-03-12T06:54:43.103Z,57.36
2023-03-12T06:55:43.120Z,58.01
2023-03-12T06:56:43.100Z,57.52
2023-03-12T06:57:43.085Z,58.01
2023-03-12T06:58:43.105Z,58.17
2023-03-12T06:59:43.080Z,57.52
2023-03-12T07:00:43.119Z,58.17
2023-03-12T07:01:43.054Z,58.17
2023-03-12T07:02:43.046Z,57.20
2023-03-12T07:03:43.053Z,57.04
2023-03-12T07:04:43.102Z,56.07
2023-03-12T07:05:43.045Z,57.52
2023-03-12T07:06:43.065Z,56.88
2023-03-12T07:07:43.050Z,56.88
2023-03-12T07:08:42.997Z,57.04
2023-03-12T07:09:43.016Z,57.04
2023-03-12T07:10:43.064Z,56.56
2023-03-12T07:11:42.977Z,57.04
2023-03-12T07:12:42.992Z,56.07
2023-03-12T07:13:43.610Z,56.56
2023-03-12T07:14:42.955Z,56.56
2023-03-12T07:15:43.037Z,56.56
2023-03-12T07:16:42.951Z,56.40
2023-03-12T07:17:42.940Z,56.56
2023-03-12T07:18:42.941Z,56.40
2023-03-12T07:19:42.923Z,55.91
2023-03-12T07:20:42.945Z,55.91
2023-03-12T07:21:42.909Z,56.07
2023-03-12T07:22:42.912Z,56.56
2023-03-12T07:23:42.895Z,55.91
2023-03-12T07:24:42.890Z,55.59
2023-03-12T07:25:42.929Z,56.07
2023-03-12T07:26:42.871Z,55.59
2023-03-12T07:27:42.868Z,56.07
2023-03-12T07:28:42.873Z,35.93
2023-03-12T07:29:42.947Z,39.48
2023-03-12T07:30:42.921Z,39.96
2023-03-12T07:31:42.935Z,40.61
2023-03-12T07:32:42.893Z,40.12
2023-03-12T07:33:42.975Z,42.22
2023-03-12T07:34:42.822Z,41.25
2023-03-12T07:35:43.022Z,39.80
2023-03-12T07:36:42.945Z,39.32
2023-03-12T07:37:42.815Z,41.09
2023-03-12T07:38:42.788Z,41.57
2023-03-12T07:39:42.788Z,41.73
2023-03-12T07:40:42.849Z,42.38
2023-03-12T07:41:43.707Z,39.16
2023-03-12T07:42:42.760Z,40.44
2023-03-12T07:43:42.808Z,39.96
2023-03-12T07:44:42.739Z,39.64
2023-03-12T07:45:42.830Z,40.28
2023-03-12T07:46:42.929Z,40.77
2023-03-12T07:47:42.903Z,42.22
2023-03-12T07:48:44.318Z,39.80
2023-03-12T07:49:43.704Z,41.41
2023-03-12T07:50:42.694Z,39.16
2023-03-12T07:51:42.697Z,39.96
2023-03-12T07:52:42.674Z,39.80
2023-03-12T07:53:42.660Z,43.02
2023-03-12T07:54:42.745Z,41.41
2023-03-12T07:55:42.745Z,43.67
2023-03-12T07:56:42.788Z,42.54
2023-03-12T07:57:42.656Z,40.77
2023-03-12T07:58:42.786Z,44.79
2023-03-12T07:59:42.699Z,40.93
2023-03-12T08:00:42.613Z,40.44
2023-03-12T08:01:44.705Z,41.09
2023-03-12T08:02:43.729Z,41.09
2023-03-12T08:03:42.722Z,40.77
2023-03-12T08:04:42.659Z,39.96
2023-03-12T08:05:42.737Z,39.64
2023-03-12T08:06:42.666Z,40.61
2023-03-12T08:07:42.563Z,39.64
2023-03-12T08:08:42.684Z,41.09
2023-03-12T08:09:42.548Z,42.86
2023-03-12T08:10:42.542Z,40.61
2023-03-12T08:11:42.734Z,39.64
2023-03-12T08:12:42.522Z,40.77
2023-03-12T08:13:42.513Z,41.73
2023-03-12T08:14:42.558Z,43.99
2023-03-12T08:15:43.113Z,40.28
2023-03-12T08:16:42.527Z,41.25
2023-03-12T08:17:42.525Z,40.77
2023-03-12T08:18:42.484Z,40.44
2023-03-12T08:19:42.558Z,43.34
2023-03-12T08:20:42.464Z,40.93
2023-03-12T08:21:42.476Z,44.79
2023-03-12T08:22:42.450Z,41.73
2023-03-12T08:23:42.435Z,41.89
2023-03-12T08:24:42.434Z,42.86
2023-03-12T08:25:42.422Z,41.89
2023-03-12T08:26:42.473Z,40.93
2023-03-12T08:27:42.412Z,42.38
2023-03-12T08:28:42.429Z,40.77
2023-03-12T08:29:42.395Z,45.60
2023-03-12T08:30:42.383Z,44.63
2023-03-12T08:31:57.394Z,45.76
2023-03-12T08:32:44.386Z,41.89
2023-03-12T08:33:42.358Z,42.70
2023-03-12T08:34:42.350Z,42.22
2023-03-12T08:35:42.396Z,42.54
2023-03-12T08:36:42.363Z,46.08
2023-03-12T08:37:42.325Z,44.15
2023-03-12T08:38:42.317Z,46.73
2023-03-12T08:39:42.358Z,40.93
2023-03-12T08:40:42.300Z,43.02
2023-03-12T08:41:42.324Z,45.12
2023-03-12T08:42:42.318Z,42.06
2023-03-12T08:43:42.280Z,47.86
2023-03-12T08:44:42.300Z,44.79
2023-03-12T08:45:42.324Z,44.96
2023-03-12T08:46:42.284Z,41.89
2023-03-12T08:47:42.259Z,43.83
2023-03-12T08:48:42.832Z,42.06
2023-03-12T08:49:42.249Z,42.06
2023-03-12T08:50:42.229Z,44.96
2023-03-12T08:51:42.287Z,45.92
2023-03-12T08:52:42.240Z,44.79
2023-03-12T08:53:42.214Z,44.63
2023-03-12T08:54:42.206Z,45.60
2023-03-12T08:55:42.227Z,44.31
2023-03-12T08:56:42.215Z,44.96
2023-03-12T08:57:42.305Z,44.79
2023-03-12T08:58:42.236Z,41.89
2023-03-12T08:59:42.176Z,42.86
2023-03-12T09:00:42.166Z,42.86
2023-03-12T09:01:43.795Z,41.41
2023-03-12T09:02:43.161Z,43.99
2023-03-12T09:03:42.716Z,42.38
2023-03-12T09:04:42.192Z,41.41
2023-03-12T09:05:42.154Z,41.89
2023-03-12T09:06:42.129Z,44.63
2023-03-12T09:07:42.112Z,44.15
2023-03-12T09:08:42.103Z,44.47
2023-03-12T09:09:42.087Z,42.86
2023-03-12T09:10:42.084Z,43.83
2023-03-12T09:11:42.100Z,43.51
2023-03-12T09:12:42.078Z,43.02
2023-03-12T09:14:02.766Z,42.86
2023-03-12T09:15:03.052Z,43.99
2023-03-12T09:15:44.045Z,44.63
2023-03-12T09:16:42.148Z,43.02
2023-03-12T09:17:42.098Z,42.54
2023-03-12T09:18:42.017Z,42.22
2023-03-12T09:19:42.011Z,44.96
2023-03-12T09:20:42.004Z,43.51
2023-03-12T09:21:42.030Z,42.54
2023-03-12T09:22:41.987Z,42.54
2023-03-12T09:23:41.981Z,42.38
2023-03-12T09:24:42.854Z,43.51
2023-03-12T09:25:41.960Z,42.54
2023-03-12T09:26:42.018Z,43.51
2023-03-12T09:27:41.949Z,42.38
2023-03-12T09:28:41.941Z,41.41
2023-03-12T09:29:57.266Z,43.51
2023-03-12T09:30:43.997Z,42.86
2023-03-12T09:31:41.944Z,43.02
2023-03-12T09:32:42.018Z,42.54
2023-03-12T09:33:41.901Z,43.02
2023-03-12T09:34:41.908Z,43.18
2023-03-12T09:35:41.889Z,42.38
2023-03-12T09:36:41.901Z,43.51
2023-03-12T09:37:41.872Z,43.02
2023-03-12T09:38:41.871Z,44.47
2023-03-12T09:39:41.920Z,43.51
2023-03-12T09:40:41.846Z,43.67
2023-03-12T09:41:41.864Z,43.34
2023-03-12T09:42:41.843Z,48.18
2023-03-12T09:43:41.826Z,44.63
2023-03-12T09:44:41.814Z,44.79
2023-03-12T09:45:41.811Z,43.67
2023-03-12T09:46:41.840Z,43.02
2023-03-12T09:47:41.783Z,45.28
2023-03-12T09:48:41.790Z,42.22
2023-03-12T09:49:41.766Z,43.02
2023-03-12T09:50:41.769Z,44.47
2023-03-12T09:51:41.793Z,42.54
2023-03-12T09:52:41.756Z,46.57
2023-03-12T09:53:41.752Z,43.99
2023-03-12T09:54:41.741Z,45.60
2023-03-12T09:55:41.735Z,44.63
2023-03-12T09:56:41.752Z,42.22
2023-03-12T09:57:41.720Z,42.86
2023-03-12T09:58:41.717Z,43.83
2023-03-12T09:59:41.699Z,46.89
2023-03-12T10:00:41.695Z,42.22
2023-03-12T10:01:41.690Z,43.18
2023-03-12T10:02:41.701Z,42.86
2023-03-12T10:03:41.704Z,41.89
2023-03-12T10:04:58.131Z,43.51
2023-03-12T10:05:43.653Z,44.79
2023-03-12T10:06:41.648Z,43.67
2023-03-12T10:07:41.674Z,44.31
2023-03-12T10:08:41.734Z,43.02
2023-03-12T10:09:41.627Z,45.60
2023-03-12T10:10:41.620Z,48.50
2023-03-12T10:11:41.613Z,45.60
2023-03-12T10:12:42.229Z,44.79
2023-03-12T10:13:41.593Z,43.34
2023-03-12T10:14:41.590Z,42.38
2023-03-12T10:15:41.620Z,41.73
2023-03-12T10:16:41.572Z,46.41
2023-03-12T10:17:41.611Z,45.28
2023-03-12T10:18:41.645Z,46.57
2023-03-12T10:19:41.558Z,45.12
2023-03-12T10:20:41.547Z,45.28
2023-03-12T10:21:41.534Z,43.02
2023-03-12T10:22:41.565Z,43.51
2023-03-12T10:23:41.525Z,48.82
2023-03-12T10:24:41.513Z,44.15
2023-03-12T10:25:41.492Z,46.57
2023-03-12T10:26:42.492Z,44.15
2023-03-12T10:27:41.513Z,42.22
2023-03-12T10:28:41.476Z,46.25
2023-03-12T10:29:44.425Z,45.44
2023-03-12T10:30:42.483Z,44.15
2023-03-12T10:31:41.457Z,45.44
2023-03-12T10:32:41.514Z,45.12
2023-03-12T10:33:41.437Z,42.38
2023-03-12T10:34:41.452Z,46.57
2023-03-12T10:35:41.477Z,48.82
2023-03-12T10:36:41.423Z,44.96
2023-03-12T10:37:41.434Z,45.44
2023-03-12T10:38:41.409Z,42.70
2023-03-12T10:39:41.414Z,44.63
2023-03-12T10:40:41.393Z,43.51
2023-03-12T10:41:41.377Z,44.31
2023-03-12T10:42:41.400Z,44.47
2023-03-12T10:43:41.362Z,44.47
2023-03-12T10:44:41.377Z,45.60
2023-03-12T10:45:41.344Z,43.67
2023-03-12T10:46:41.437Z,43.34
2023-03-12T10:47:41.355Z,45.44
2023-03-12T10:48:41.326Z,44.31
2023-03-12T10:49:41.311Z,44.79
2023-03-12T10:50:41.316Z,42.70
2023-03-12T10:51:41.315Z,44.47
2023-03-12T10:52:41.332Z,42.22
2023-03-12T10:53:41.294Z,46.08
2023-03-12T10:54:41.284Z,43.83
2023-03-12T10:55:41.279Z,44.31
2023-03-12T10:56:41.271Z,44.31
2023-03-12T10:57:41.419Z,45.76
2023-03-12T10:58:41.264Z,46.25
2023-03-12T10:59:41.249Z,45.12
2023-03-12T11:00:41.280Z,47.21
2023-03-12T11:01:41.245Z,47.37
2023-03-12T11:02:41.248Z,46.08
2023-03-12T11:03:41.214Z,44.31
2023-03-12T11:04:41.206Z,43.99
2023-03-12T11:05:41.241Z,48.18
2023-03-12T11:06:41.206Z,50.60
2023-03-12T11:07:41.216Z,46.41
2023-03-12T11:08:41.175Z,46.25
2023-03-12T11:09:41.178Z,45.28
2023-03-12T11:10:41.197Z,44.63
2023-03-12T11:11:41.153Z,45.92
2023-03-12T11:12:41.173Z,44.15
2023-03-12T11:13:41.151Z,43.51
2023-03-12T11:14:41.129Z,45.76
2023-03-12T11:15:41.190Z,48.34
2023-03-12T11:16:41.857Z,48.82
2023-03-12T11:17:41.173Z,45.60
2023-03-12T11:18:41.095Z,43.83
2023-03-12T11:19:41.087Z,43.99
2023-03-12T11:20:41.086Z,46.73
2023-03-12T11:21:41.220Z,43.18
2023-03-12T11:22:41.097Z,46.89
2023-03-12T11:23:41.071Z,43.67
2023-03-12T11:24:41.051Z,43.18
2023-03-12T11:25:41.039Z,47.05
2023-03-12T11:26:41.049Z,47.21
2023-03-12T11:27:41.037Z,47.86
2023-03-12T11:28:41.051Z,45.92
2023-03-12T11:29:41.091Z,46.41
2023-03-12T11:30:41.073Z,44.15
2023-03-12T11:31:41.033Z,44.96
2023-03-12T11:32:41.038Z,46.25
2023-03-12T11:33:41.007Z,47.37
2023-03-12T11:34:40.973Z,45.60
2023-03-12T11:35:41.019Z,45.76
2023-03-12T11:36:40.962Z,43.51
2023-03-12T11:37:40.962Z,47.37
2023-03-12T11:38:40.970Z,47.53
2023-03-12T11:39:40.940Z,42.54
2023-03-12T11:40:40.940Z,43.34
2023-03-12T11:41:40.947Z,46.25
2023-03-12T11:42:40.919Z,48.02
2023-03-12T11:43:43.919Z,43.67
2023-03-12T11:44:41.904Z,44.15
2023-03-12T11:45:40.903Z,44.31
2023-03-12T11:46:40.942Z,44.47
2023-03-12T11:47:41.989Z,43.67
2023-03-12T11:48:40.966Z,46.08
2023-03-12T11:49:40.876Z,44.63
2023-03-12T11:50:40.972Z,42.86
2023-03-12T11:51:40.849Z,46.08
2023-03-12T11:52:40.843Z,43.18
2023-03-12T11:53:40.866Z,44.79
2023-03-12T11:54:40.825Z,45.12
2023-03-12T11:55:40.825Z,42.70
2023-03-12T11:56:40.821Z,42.86
2023-03-12T11:57:40.821Z,44.96
2023-03-12T11:58:41.650Z,45.12
2023-03-12T11:59:40.775Z,44.79
2023-03-12T12:00:41.790Z,43.99
2023-03-12T12:01:40.840Z,45.92
2023-03-12T12:02:40.782Z,42.70
2023-03-12T12:03:40.810Z,42.54
2023-03-12T12:04:40.753Z,43.34
2023-03-12T12:05:40.755Z,46.57
2023-03-12T12:06:40.740Z,47.21
2023-03-12T12:07:40.740Z,43.02
2023-03-12T12:08:40.750Z,45.76
2023-03-12T12:09:40.720Z,46.25
2023-03-12T12:10:40.721Z,45.12
2023-03-12T12:11:40.699Z,46.57
2023-03-12T12:12:40.720Z,41.41
2023-03-12T12:13:40.724Z,40.77
2023-03-12T12:14:40.679Z,42.06
2023-03-12T12:15:40.715Z,48.34
2023-03-12T12:16:40.806Z,45.60
2023-03-12T12:17:40.662Z,45.28
2023-03-12T12:18:40.689Z,43.51
2023-03-12T12:19:40.706Z,46.73
2023-03-12T12:20:40.626Z,43.02
2023-03-12T12:21:40.624Z,44.31
2023-03-12T12:22:40.617Z,43.34
2023-03-12T12:23:40.633Z,45.28
2023-03-12T12:24:40.602Z,48.50
2023-03-12T12:25:40.617Z,45.28
2023-03-12T12:26:40.595Z,42.22
2023-03-12T12:27:40.603Z,43.02
2023-03-12T12:28:40.580Z,45.12
2023-03-12T12:29:42.369Z,47.37
2023-03-12T12:30:40.561Z,48.82
2023-03-12T12:31:40.659Z,44.63
2023-03-12T12:32:40.587Z,45.76
2023-03-12T12:33:40.543Z,47.05
2023-03-12T12:34:40.579Z,44.96
2023-03-12T12:35:40.594Z,45.12
2023-03-12T12:36:40.527Z,44.79
2023-03-12T12:37:40.506Z,41.89
2023-03-12T12:38:40.505Z,43.34
2023-03-12T12:39:40.526Z,46.73
2023-03-12T12:40:40.488Z,41.89
2023-03-12T12:41:40.476Z,45.76
2023-03-12T12:42:40.466Z,45.28
2023-03-12T12:43:40.468Z,46.57
2023-03-12T12:44:40.518Z,51.88
2023-03-12T12:45:40.474Z,42.22
2023-03-12T12:46:41.439Z,43.83
2023-03-12T12:47:40.467Z,44.96
2023-03-12T12:48:40.428Z,43.99
2023-03-12T12:49:40.455Z,44.31
2023-03-12T12:50:41.258Z,41.89
2023-03-12T12:51:40.405Z,42.54
2023-03-12T12:52:40.395Z,42.54